sensor_id;sensor_type;location;lat;lon;timestamp;P1;durP1;ratioP1;P2;durP2;ratioP2
70303;SDS011;57712;48.752;11.348;2022-12-29T00:00:15;20.57;;;11.57;;
70303;SDS011;57712;48.752;11.348;2022-12-29T00:02:42;20.90;;;11.48;;
70303;SDS011;57712;48.752;11.348;2022-12-29T00:05:09;23.17;;;12.63;;
70303;SDS011;57712;48.752;11.348;2022-12-29T00:07:36;22.55;;;12.05;;
70303;SDS011;57712;48.752;11.348;2022-12-29T00:10:02;21.35;;;11.27;;
70303;SDS011;57712;48.752;11.348;2022-12-29T00:12:29;22.17;;;12.77;;
70303;SDS011;57712;48.752;11.348;2022-12-29T00:15:16;21.10;;;11.70;;
70303;SDS011;57712;48.752;11.348;2022-12-29T00:18:01;21.73;;;11.88;;
70303;SDS011;57712;48.752;11.348;2022-12-29T00:20:28;21.33;;;10.60;;
70303;SDS011;57712;48.752;11.348;2022-12-29T00:23:13;22.70;;;11.70;;
70303;SDS011;57712;48.752;11.348;2022-12-29T00:25:57;21.47;;;11.30;;
70303;SDS011;57712;48.752;11.348;2022-12-29T00:28:43;18.52;;;9.98;;
70303;SDS011;57712;48.752;11.348;2022-12-29T00:31:28;20.90;;;10.68;;
70303;SDS011;57712;48.752;11.348;2022-12-29T00:34:14;22.55;;;11.40;;
70303;SDS011;57712;48.752;11.348;2022-12-29T00:36:58;19.38;;;10.52;;
70303;SDS011;57712;48.752;11.348;2022-12-29T00:39:26;20.43;;;11.07;;
70303;SDS011;57712;48.752;11.348;2022-12-29T00:42:32;19.60;;;10.88;;
70303;SDS011;57712;48.752;11.348;2022-12-29T00:45:17;20.40;;;11.38;;
70303;SDS011;57712;48.752;11.348;2022-12-29T00:47:43;18.65;;;10.00;;
70303;SDS011;57712;48.752;11.348;2022-12-29T00:50:10;18.88;;;9.75;;
70303;SDS011;57712;48.752;11.348;2022-12-29T00:52:36;16.33;;;9.03;;
70303;SDS011;57712;48.752;11.348;2022-12-29T00:55:03;17.50;;;9.10;;
70303;SDS011;57712;48.752;11.348;2022-12-29T00:57:30;18.00;;;9.50;;
70303;SDS011;57712;48.752;11.348;2022-12-29T00:59:56;17.02;;;9.35;;
70303;SDS011;57712;48.752;11.348;2022-12-29T01:02:23;19.60;;;9.20;;
70303;SDS011;57712;48.752;11.348;2022-12-29T01:04:49;17.13;;;8.73;;
70303;SDS011;57712;48.752;11.348;2022-12-29T01:07:16;17.02;;;9.50;;
70303;SDS011;57712;48.752;11.348;2022-12-29T01:09:43;15.15;;;8.65;;
70303;SDS011;57712;48.752;11.348;2022-12-29T01:12:28;14.82;;;7.97;;
70303;SDS011;57712;48.752;11.348;2022-12-29T01:15:08;15.85;;;8.18;;
70303;SDS011;57712;48.752;11.348;2022-12-29T01:17:36;15.27;;;8.40;;
70303;SDS011;57712;48.752;11.348;2022-12-29T01:20:03;15.77;;;8.18;;
70303;SDS011;57712;48.752;11.348;2022-12-29T01:22:30;16.35;;;8.77;;
70303;SDS011;57712;48.752;11.348;2022-12-29T01:24:57;15.88;;;8.10;;
70303;SDS011;57712;48.752;11.348;2022-12-29T01:27:23;15.98;;;7.72;;
70303;SDS011;57712;48.752;11.348;2022-12-29T01:29:50;15.40;;;8.23;;
70303;SDS011;57712;48.752;11.348;2022-12-29T01:32:17;15.90;;;8.07;;
70303;SDS011;57712;48.752;11.348;2022-12-29T01:34:43;15.07;;;7.78;;
70303;SDS011;57712;48.752;11.348;2022-12-29T01:37:10;15.93;;;8.80;;
70303;SDS011;57712;48.752;11.348;2022-12-29T01:39:37;15.48;;;8.35;;
70303;SDS011;57712;48.752;11.348;2022-12-29T01:42:03;15.63;;;8.03;;
70303;SDS011;57712;48.752;11.348;2022-12-29T01:50:03;15.10;;;8.23;;
70303;SDS011;57712;48.752;11.348;2022-12-29T01:52:40;16.95;;;8.75;;
70303;SDS011;57712;48.752;11.348;2022-12-29T01:55:13;16.83;;;8.10;;
70303;SDS011;57712;48.752;11.348;2022-12-29T01:57:41;15.18;;;8.02;;
70303;SDS011;57712;48.752;11.348;2022-12-29T02:00:12;15.73;;;8.48;;
70303;SDS011;57712;48.752;11.348;2022-12-29T02:02:44;14.02;;;7.63;;
70303;SDS011;57712;48.752;11.348;2022-12-29T02:05:16;16.52;;;8.27;;
70303;SDS011;57712;48.752;11.348;2022-12-29T02:07:49;15.40;;;7.90;;
70303;SDS011;57712;48.752;11.348;2022-12-29T02:10:19;15.18;;;8.35;;
70303;SDS011;57712;48.752;11.348;2022-12-29T02:12:48;13.48;;;8.02;;
70303;SDS011;57712;48.752;11.348;2022-12-29T02:15:14;14.20;;;7.75;;
70303;SDS011;57712;48.752;11.348;2022-12-29T02:23:24;16.63;;;7.65;;
70303;SDS011;57712;48.752;11.348;2022-12-29T02:37:46;14.57;;;7.38;;
70303;SDS011;57712;48.752;11.348;2022-12-29T02:40:39;15.55;;;7.88;;
70303;SDS011;57712;48.752;11.348;2022-12-29T02:43:41;14.25;;;7.65;;
70303;SDS011;57712;48.752;11.348;2022-12-29T02:46:28;15.63;;;8.27;;
70303;SDS011;57712;48.752;11.348;2022-12-29T02:49:13;15.17;;;7.83;;
70303;SDS011;57712;48.752;11.348;2022-12-29T02:51:48;16.30;;;7.65;;
70303;SDS011;57712;48.752;11.348;2022-12-29T02:54:19;16.70;;;7.72;;
70303;SDS011;57712;48.752;11.348;2022-12-29T02:57:11;17.08;;;7.40;;
70303;SDS011;57712;48.752;11.348;2022-12-29T02:59:40;15.60;;;7.15;;
70303;SDS011;57712;48.752;11.348;2022-12-29T03:13:37;14.80;;;7.70;;
70303;SDS011;57712;48.752;11.348;2022-12-29T03:19:08;13.95;;;6.95;;
70303;SDS011;57712;48.752;11.348;2022-12-29T03:21:44;13.25;;;6.97;;
70303;SDS011;57712;48.752;11.348;2022-12-29T03:24:55;11.90;;;5.90;;
70303;SDS011;57712;48.752;11.348;2022-12-29T03:27:27;11.98;;;5.88;;
70303;SDS011;57712;48.752;11.348;2022-12-29T03:30:00;12.03;;;6.20;;
70303;SDS011;57712;48.752;11.348;2022-12-29T03:32:33;11.98;;;5.80;;
70303;SDS011;57712;48.752;11.348;2022-12-29T03:35:05;10.07;;;5.30;;
70303;SDS011;57712;48.752;11.348;2022-12-29T03:37:42;11.23;;;5.75;;
70303;SDS011;57712;48.752;11.348;2022-12-29T03:40:15;12.18;;;5.38;;
70303;SDS011;57712;48.752;11.348;2022-12-29T03:42:43;12.07;;;5.53;;
70303;SDS011;57712;48.752;11.348;2022-12-29T03:45:10;10.88;;;5.50;;
70303;SDS011;57712;48.752;11.348;2022-12-29T03:47:37;10.30;;;4.97;;
70303;SDS011;57712;48.752;11.348;2022-12-29T03:50:03;9.43;;;4.20;;
70303;SDS011;57712;48.752;11.348;2022-12-29T03:52:30;9.40;;;4.82;;
70303;SDS011;57712;48.752;11.348;2022-12-29T03:54:56;9.60;;;4.70;;
70303;SDS011;57712;48.752;11.348;2022-12-29T03:57:22;8.73;;;4.38;;
70303;SDS011;57712;48.752;11.348;2022-12-29T03:59:49;11.40;;;4.93;;
70303;SDS011;57712;48.752;11.348;2022-12-29T04:02:15;11.30;;;4.97;;
70303;SDS011;57712;48.752;11.348;2022-12-29T04:04:43;10.82;;;5.80;;
70303;SDS011;57712;48.752;11.348;2022-12-29T04:07:10;10.50;;;5.17;;
70303;SDS011;57712;48.752;11.348;2022-12-29T04:09:37;10.35;;;5.30;;
70303;SDS011;57712;48.752;11.348;2022-12-29T04:12:03;9.23;;;4.88;;
70303;SDS011;57712;48.752;11.348;2022-12-29T04:14:30;9.88;;;5.30;;
70303;SDS011;57712;48.752;11.348;2022-12-29T04:16:56;10.38;;;5.45;;
70303;SDS011;57712;48.752;11.348;2022-12-29T04:19:23;9.70;;;5.13;;
70303;SDS011;57712;48.752;11.348;2022-12-29T04:21:49;10.70;;;5.60;;
70303;SDS011;57712;48.752;11.348;2022-12-29T04:24:16;10.02;;;4.82;;
70303;SDS011;57712;48.752;11.348;2022-12-29T04:26:43;8.85;;;3.88;;
70303;SDS011;57712;48.752;11.348;2022-12-29T04:29:10;6.80;;;3.20;;
70303;SDS011;57712;48.752;11.348;2022-12-29T04:31:36;6.77;;;2.20;;
70303;SDS011;57712;48.752;11.348;2022-12-29T04:34:03;6.75;;;1.80;;
70303;SDS011;57712;48.752;11.348;2022-12-29T04:36:29;5.32;;;1.40;;
70303;SDS011;57712;48.752;11.348;2022-12-29T04:38:56;4.95;;;1.17;;
70303;SDS011;57712;48.752;11.348;2022-12-29T04:41:23;4.60;;;0.93;;
70303;SDS011;57712;48.752;11.348;2022-12-29T04:43:49;3.93;;;1.00;;
70303;SDS011;57712;48.752;11.348;2022-12-29T04:46:16;5.32;;;1.05;;
70303;SDS011;57712;48.752;11.348;2022-12-29T04:48:43;3.22;;;0.60;;
70303;SDS011;57712;48.752;11.348;2022-12-29T04:51:10;3.50;;;0.60;;
70303;SDS011;57712;48.752;11.348;2022-12-29T04:53:36;3.80;;;0.68;;
70303;SDS011;57712;48.752;11.348;2022-12-29T04:56:02;4.43;;;0.50;;
70303;SDS011;57712;48.752;11.348;2022-12-29T04:58:29;3.63;;;0.55;;
70303;SDS011;57712;48.752;11.348;2022-12-29T05:00:55;3.70;;;0.70;;
70303;SDS011;57712;48.752;11.348;2022-12-29T05:03:22;2.70;;;0.40;;
70303;SDS011;57712;48.752;11.348;2022-12-29T05:05:48;3.28;;;0.60;;
70303;SDS011;57712;48.752;11.348;2022-12-29T05:08:18;3.83;;;0.53;;
70303;SDS011;57712;48.752;11.348;2022-12-29T05:10:52;3.63;;;0.50;;
70303;SDS011;57712;48.752;11.348;2022-12-29T05:13:19;3.85;;;1.00;;
70303;SDS011;57712;48.752;11.348;2022-12-29T05:15:47;3.47;;;0.50;;
70303;SDS011;57712;48.752;11.348;2022-12-29T05:18:19;3.35;;;0.40;;
70303;SDS011;57712;48.752;11.348;2022-12-29T05:20:46;4.07;;;0.60;;
70303;SDS011;57712;48.752;11.348;2022-12-29T05:23:12;3.25;;;0.43;;
70303;SDS011;57712;48.752;11.348;2022-12-29T05:25:40;3.65;;;0.73;;
70303;SDS011;57712;48.752;11.348;2022-12-29T05:28:06;3.60;;;0.60;;
70303;SDS011;57712;48.752;11.348;2022-12-29T05:30:32;5.75;;;0.88;;
70303;SDS011;57712;48.752;11.348;2022-12-29T05:32:59;3.03;;;0.40;;
70303;SDS011;57712;48.752;11.348;2022-12-29T05:35:25;3.50;;;0.52;;
70303;SDS011;57712;48.752;11.348;2022-12-29T05:37:52;3.47;;;0.50;;
70303;SDS011;57712;48.752;11.348;2022-12-29T05:40:18;3.47;;;0.50;;
70303;SDS011;57712;48.752;11.348;2022-12-29T05:42:45;3.83;;;0.60;;
70303;SDS011;57712;48.752;11.348;2022-12-29T05:45:11;3.73;;;0.40;;
70303;SDS011;57712;48.752;11.348;2022-12-29T05:47:39;4.00;;;0.65;;
70303;SDS011;57712;48.752;11.348;2022-12-29T05:50:06;3.00;;;0.50;;
70303;SDS011;57712;48.752;11.348;2022-12-29T05:52:33;3.33;;;0.50;;
70303;SDS011;57712;48.752;11.348;2022-12-29T05:54:59;3.30;;;0.63;;
70303;SDS011;57712;48.752;11.348;2022-12-29T05:57:26;3.33;;;0.70;;
70303;SDS011;57712;48.752;11.348;2022-12-29T05:59:52;3.28;;;0.50;;
70303;SDS011;57712;48.752;11.348;2022-12-29T06:02:19;3.20;;;0.50;;
70303;SDS011;57712;48.752;11.348;2022-12-29T06:04:45;3.45;;;0.50;;
70303;SDS011;57712;48.752;11.348;2022-12-29T06:07:12;3.55;;;0.70;;
70303;SDS011;57712;48.752;11.348;2022-12-29T06:09:38;3.33;;;0.50;;
70303;SDS011;57712;48.752;11.348;2022-12-29T06:12:05;3.85;;;0.50;;
70303;SDS011;57712;48.752;11.348;2022-12-29T06:14:32;3.58;;;0.50;;
70303;SDS011;57712;48.752;11.348;2022-12-29T06:16:59;3.90;;;0.45;;
70303;SDS011;57712;48.752;11.348;2022-12-29T06:19:26;2.85;;;0.40;;
70303;SDS011;57712;48.752;11.348;2022-12-29T06:21:52;4.07;;;0.50;;
70303;SDS011;57712;48.752;11.348;2022-12-29T06:24:19;3.13;;;0.55;;
70303;SDS011;57712;48.752;11.348;2022-12-29T06:26:46;3.80;;;0.60;;
70303;SDS011;57712;48.752;11.348;2022-12-29T06:29:13;2.85;;;0.45;;
70303;SDS011;57712;48.752;11.348;2022-12-29T06:31:45;3.72;;;0.50;;
70303;SDS011;57712;48.752;11.348;2022-12-29T06:34:12;3.20;;;0.53;;
70303;SDS011;57712;48.752;11.348;2022-12-29T06:36:39;3.55;;;0.50;;
70303;SDS011;57712;48.752;11.348;2022-12-29T06:39:05;3.20;;;0.50;;
70303;SDS011;57712;48.752;11.348;2022-12-29T06:41:32;3.80;;;0.60;;
70303;SDS011;57712;48.752;11.348;2022-12-29T06:43:58;3.78;;;0.40;;
70303;SDS011;57712;48.752;11.348;2022-12-29T06:46:25;4.33;;;0.50;;
70303;SDS011;57712;48.752;11.348;2022-12-29T06:48:52;4.00;;;0.80;;
70303;SDS011;57712;48.752;11.348;2022-12-29T06:51:18;4.03;;;0.75;;
70303;SDS011;57712;48.752;11.348;2022-12-29T06:53:44;3.70;;;0.60;;
70303;SDS011;57712;48.752;11.348;2022-12-29T06:56:11;3.30;;;0.50;;
70303;SDS011;57712;48.752;11.348;2022-12-29T06:58:37;3.73;;;0.63;;
70303;SDS011;57712;48.752;11.348;2022-12-29T07:01:04;3.30;;;0.68;;
70303;SDS011;57712;48.752;11.348;2022-12-29T07:03:31;4.15;;;0.63;;
70303;SDS011;57712;48.752;11.348;2022-12-29T07:05:57;3.53;;;0.70;;
70303;SDS011;57712;48.752;11.348;2022-12-29T07:08:24;3.85;;;0.90;;
70303;SDS011;57712;48.752;11.348;2022-12-29T07:10:51;3.57;;;0.50;;
70303;SDS011;57712;48.752;11.348;2022-12-29T07:13:17;3.47;;;0.55;;
70303;SDS011;57712;48.752;11.348;2022-12-29T07:15:43;3.70;;;0.80;;
70303;SDS011;57712;48.752;11.348;2022-12-29T07:18:10;3.72;;;0.75;;
70303;SDS011;57712;48.752;11.348;2022-12-29T07:20:36;4.47;;;0.85;;
70303;SDS011;57712;48.752;11.348;2022-12-29T07:23:03;5.03;;;0.73;;
70303;SDS011;57712;48.752;11.348;2022-12-29T07:25:30;3.65;;;0.77;;
70303;SDS011;57712;48.752;11.348;2022-12-29T07:27:56;3.67;;;0.50;;
70303;SDS011;57712;48.752;11.348;2022-12-29T07:30:23;3.70;;;0.60;;
70303;SDS011;57712;48.752;11.348;2022-12-29T07:32:49;4.63;;;0.65;;
70303;SDS011;57712;48.752;11.348;2022-12-29T07:35:15;3.53;;;0.70;;
70303;SDS011;57712;48.752;11.348;2022-12-29T07:37:42;3.92;;;0.80;;
70303;SDS011;57712;48.752;11.348;2022-12-29T07:40:09;5.00;;;0.90;;
70303;SDS011;57712;48.752;11.348;2022-12-29T07:42:36;3.75;;;0.80;;
70303;SDS011;57712;48.752;11.348;2022-12-29T07:45:03;4.00;;;0.60;;
70303;SDS011;57712;48.752;11.348;2022-12-29T07:47:29;3.70;;;0.70;;
70303;SDS011;57712;48.752;11.348;2022-12-29T07:49:56;3.80;;;0.77;;
70303;SDS011;57712;48.752;11.348;2022-12-29T07:52:22;5.25;;;1.08;;
70303;SDS011;57712;48.752;11.348;2022-12-29T07:54:49;3.58;;;0.82;;
70303;SDS011;57712;48.752;11.348;2022-12-29T07:57:16;3.80;;;0.73;;
70303;SDS011;57712;48.752;11.348;2022-12-29T07:59:42;3.33;;;0.70;;
70303;SDS011;57712;48.752;11.348;2022-12-29T08:02:10;4.30;;;0.77;;
70303;SDS011;57712;48.752;11.348;2022-12-29T08:04:38;5.35;;;1.40;;
70303;SDS011;57712;48.752;11.348;2022-12-29T08:07:04;4.97;;;1.40;;
70303;SDS011;57712;48.752;11.348;2022-12-29T08:09:30;7.07;;;3.00;;
70303;SDS011;57712;48.752;11.348;2022-12-29T08:11:57;8.60;;;3.57;;
70303;SDS011;57712;48.752;11.348;2022-12-29T08:14:24;9.52;;;4.30;;
70303;SDS011;57712;48.752;11.348;2022-12-29T08:16:50;13.32;;;5.15;;
70303;SDS011;57712;48.752;11.348;2022-12-29T08:19:17;14.30;;;5.38;;
70303;SDS011;57712;48.752;11.348;2022-12-29T08:21:43;12.75;;;5.28;;
70303;SDS011;57712;48.752;11.348;2022-12-29T08:24:10;20.00;;;7.80;;
70303;SDS011;57712;48.752;11.348;2022-12-29T08:26:36;14.43;;;6.35;;
70303;SDS011;57712;48.752;11.348;2022-12-29T08:29:03;17.75;;;7.35;;
70303;SDS011;57712;48.752;11.348;2022-12-29T08:31:29;16.85;;;6.78;;
70303;SDS011;57712;48.752;11.348;2022-12-29T08:33:56;15.15;;;6.72;;
70303;SDS011;57712;48.752;11.348;2022-12-29T08:36:23;15.87;;;6.60;;
70303;SDS011;57712;48.752;11.348;2022-12-29T08:38:49;16.38;;;7.57;;
70303;SDS011;57712;48.752;11.348;2022-12-29T08:41:15;16.48;;;8.02;;
70303;SDS011;57712;48.752;11.348;2022-12-29T08:43:45;9.32;;;4.15;;
70303;SDS011;57712;48.752;11.348;2022-12-29T08:46:12;7.53;;;2.50;;
70303;SDS011;57712;48.752;11.348;2022-12-29T08:48:39;6.07;;;1.83;;
70303;SDS011;57712;48.752;11.348;2022-12-29T08:51:06;6.55;;;4.38;;
70303;SDS011;57712;48.752;11.348;2022-12-29T08:53:32;8.35;;;6.22;;
70303;SDS011;57712;48.752;11.348;2022-12-29T08:56:00;6.50;;;3.67;;
70303;SDS011;57712;48.752;11.348;2022-12-29T08:58:30;5.75;;;2.30;;
70303;SDS011;57712;48.752;11.348;2022-12-29T09:00:58;9.20;;;4.77;;
70303;SDS011;57712;48.752;11.348;2022-12-29T09:03:25;7.25;;;3.15;;
70303;SDS011;57712;48.752;11.348;2022-12-29T09:06:12;5.40;;;1.58;;
70303;SDS011;57712;48.752;11.348;2022-12-29T09:08:39;6.18;;;2.80;;
70303;SDS011;57712;48.752;11.348;2022-12-29T09:11:07;6.03;;;1.60;;
70303;SDS011;57712;48.752;11.348;2022-12-29T09:13:40;4.77;;;1.70;;
70303;SDS011;57712;48.752;11.348;2022-12-29T09:16:07;4.85;;;1.33;;
70303;SDS011;57712;48.752;11.348;2022-12-29T09:18:34;5.22;;;1.70;;
70303;SDS011;57712;48.752;11.348;2022-12-29T09:21:01;24.50;;;14.60;;
70303;SDS011;57712;48.752;11.348;2022-12-29T09:23:29;10.02;;;4.22;;
70303;SDS011;57712;48.752;11.348;2022-12-29T09:25:56;7.07;;;3.00;;
70303;SDS011;57712;48.752;11.348;2022-12-29T09:28:23;6.68;;;3.00;;
70303;SDS011;57712;48.752;11.348;2022-12-29T09:30:50;6.10;;;2.95;;
70303;SDS011;57712;48.752;11.348;2022-12-29T09:33:18;6.95;;;3.40;;
70303;SDS011;57712;48.752;11.348;2022-12-29T09:35:45;7.38;;;2.78;;
70303;SDS011;57712;48.752;11.348;2022-12-29T09:38:17;6.97;;;3.90;;
70303;SDS011;57712;48.752;11.348;2022-12-29T09:40:44;7.15;;;2.67;;
70303;SDS011;57712;48.752;11.348;2022-12-29T09:48:39;6.82;;;2.03;;
70303;SDS011;57712;48.752;11.348;2022-12-29T09:51:13;4.50;;;1.60;;
70303;SDS011;57712;48.752;11.348;2022-12-29T09:53:43;4.82;;;1.30;;
70303;SDS011;57712;48.752;11.348;2022-12-29T09:56:15;8.45;;;1.45;;
70303;SDS011;57712;48.752;11.348;2022-12-29T10:01:34;4.72;;;1.38;;
70303;SDS011;57712;48.752;11.348;2022-12-29T10:04:07;4.27;;;1.03;;
70303;SDS011;57712;48.752;11.348;2022-12-29T10:06:41;6.75;;;2.25;;
70303;SDS011;57712;48.752;11.348;2022-12-29T10:12:22;8.60;;;2.70;;
70303;SDS011;57712;48.752;11.348;2022-12-29T10:18:17;6.83;;;2.63;;
70303;SDS011;57712;48.752;11.348;2022-12-29T10:20:50;10.48;;;4.05;;
70303;SDS011;57712;48.752;11.348;2022-12-29T10:23:42;6.20;;;1.63;;
70303;SDS011;57712;48.752;11.348;2022-12-29T10:26:21;7.55;;;1.40;;
70303;SDS011;57712;48.752;11.348;2022-12-29T10:28:53;6.28;;;1.40;;
70303;SDS011;57712;48.752;11.348;2022-12-29T10:31:25;13.13;;;6.03;;
70303;SDS011;57712;48.752;11.348;2022-12-29T10:33:59;9.52;;;3.53;;
70303;SDS011;57712;48.752;11.348;2022-12-29T10:36:35;6.60;;;2.60;;
70303;SDS011;57712;48.752;11.348;2022-12-29T10:39:14;5.38;;;1.98;;
70303;SDS011;57712;48.752;11.348;2022-12-29T10:41:50;6.25;;;1.98;;
70303;SDS011;57712;48.752;11.348;2022-12-29T10:44:21;10.07;;;5.30;;
70303;SDS011;57712;48.752;11.348;2022-12-29T10:46:56;6.63;;;1.90;;
70303;SDS011;57712;48.752;11.348;2022-12-29T10:49:27;7.35;;;1.77;;
70303;SDS011;57712;48.752;11.348;2022-12-29T10:51:57;7.63;;;1.80;;
70303;SDS011;57712;48.752;11.348;2022-12-29T10:54:27;4.72;;;1.70;;
70303;SDS011;57712;48.752;11.348;2022-12-29T10:57:10;5.00;;;1.50;;
70303;SDS011;57712;48.752;11.348;2022-12-29T10:59:41;9.18;;;5.05;;
70303;SDS011;57712;48.752;11.348;2022-12-29T11:07:14;4.93;;;1.10;;
70303;SDS011;57712;48.752;11.348;2022-12-29T11:09:47;6.80;;;1.30;;
70303;SDS011;57712;48.752;11.348;2022-12-29T11:12:22;5.30;;;2.00;;
70303;SDS011;57712;48.752;11.348;2022-12-29T11:15:12;6.80;;;2.20;;
70303;SDS011;57712;48.752;11.348;2022-12-29T11:17:44;5.72;;;1.80;;
70303;SDS011;57712;48.752;11.348;2022-12-29T11:20:35;5.78;;;1.48;;
70303;SDS011;57712;48.752;11.348;2022-12-29T11:23:21;4.27;;;1.50;;
70303;SDS011;57712;48.752;11.348;2022-12-29T11:28:34;6.18;;;3.30;;
70303;SDS011;57712;48.752;11.348;2022-12-29T11:31:01;6.45;;;2.10;;
70303;SDS011;57712;48.752;11.348;2022-12-29T11:33:30;4.50;;;1.13;;
70303;SDS011;57712;48.752;11.348;2022-12-29T11:35:58;6.33;;;1.10;;
70303;SDS011;57712;48.752;11.348;2022-12-29T11:38:35;5.20;;;0.90;;
70303;SDS011;57712;48.752;11.348;2022-12-29T11:41:04;4.13;;;0.88;;
70303;SDS011;57712;48.752;11.348;2022-12-29T11:43:41;4.32;;;0.90;;
70303;SDS011;57712;48.752;11.348;2022-12-29T11:46:17;4.03;;;1.30;;
70303;SDS011;57712;48.752;11.348;2022-12-29T11:48:46;4.10;;;0.70;;
70303;SDS011;57712;48.752;11.348;2022-12-29T11:51:21;4.13;;;1.10;;
70303;SDS011;57712;48.752;11.348;2022-12-29T11:53:51;4.97;;;0.90;;
70303;SDS011;57712;48.752;11.348;2022-12-29T11:56:31;3.80;;;0.88;;
70303;SDS011;57712;48.752;11.348;2022-12-29T11:59:24;3.95;;;0.90;;
70303;SDS011;57712;48.752;11.348;2022-12-29T12:01:56;4.00;;;1.00;;
70303;SDS011;57712;48.752;11.348;2022-12-29T12:04:26;4.32;;;1.13;;
70303;SDS011;57712;48.752;11.348;2022-12-29T12:06:59;6.85;;;2.05;;
70303;SDS011;57712;48.752;11.348;2022-12-29T12:09:35;9.02;;;2.83;;
70303;SDS011;57712;48.752;11.348;2022-12-29T12:12:05;7.07;;;1.95;;
70303;SDS011;57712;48.752;11.348;2022-12-29T12:14:43;8.07;;;2.37;;
70303;SDS011;57712;48.752;11.348;2022-12-29T12:17:23;9.65;;;2.55;;
70303;SDS011;57712;48.752;11.348;2022-12-29T12:22:53;11.85;;;3.22;;
70303;SDS011;57712;48.752;11.348;2022-12-29T12:25:35;5.97;;;1.70;;
70303;SDS011;57712;48.752;11.348;2022-12-29T12:30:43;17.42;;;5.65;;
70303;SDS011;57712;48.752;11.348;2022-12-29T12:36:22;5.47;;;1.40;;
70303;SDS011;57712;48.752;11.348;2022-12-29T12:39:45;6.75;;;1.38;;
70303;SDS011;57712;48.752;11.348;2022-12-29T12:44:49;4.15;;;1.00;;
70303;SDS011;57712;48.752;11.348;2022-12-29T12:50:49;5.60;;;0.70;;
70303;SDS011;57712;48.752;11.348;2022-12-29T12:53:30;5.05;;;1.27;;
70303;SDS011;57712;48.752;11.348;2022-12-29T12:56:11;6.30;;;0.90;;
70303;SDS011;57712;48.752;11.348;2022-12-29T12:59:03;3.72;;;0.57;;
70303;SDS011;57712;48.752;11.348;2022-12-29T13:01:42;6.30;;;0.95;;
70303;SDS011;57712;48.752;11.348;2022-12-29T13:04:32;4.78;;;1.08;;
70303;SDS011;57712;48.752;11.348;2022-12-29T13:10:23;3.63;;;1.30;;
70303;SDS011;57712;48.752;11.348;2022-12-29T13:15:56;4.47;;;0.80;;
70303;SDS011;57712;48.752;11.348;2022-12-29T13:18:48;3.95;;;0.90;;
70303;SDS011;57712;48.752;11.348;2022-12-29T13:21:35;5.55;;;1.30;;
70303;SDS011;57712;48.752;11.348;2022-12-29T13:27:44;5.63;;;1.70;;
70303;SDS011;57712;48.752;11.348;2022-12-29T13:30:20;3.80;;;0.85;;
70303;SDS011;57712;48.752;11.348;2022-12-29T13:35:25;5.05;;;1.20;;
70303;SDS011;57712;48.752;11.348;2022-12-29T13:37:54;3.47;;;0.83;;
70303;SDS011;57712;48.752;11.348;2022-12-29T13:40:28;5.10;;;1.05;;
70303;SDS011;57712;48.752;11.348;2022-12-29T13:43:00;4.85;;;1.10;;
70303;SDS011;57712;48.752;11.348;2022-12-29T13:45:28;4.00;;;1.00;;
70303;SDS011;57712;48.752;11.348;2022-12-29T13:48:14;5.95;;;0.90;;
70303;SDS011;57712;48.752;11.348;2022-12-29T13:50:48;5.97;;;1.10;;
70303;SDS011;57712;48.752;11.348;2022-12-29T13:53:25;6.75;;;0.80;;
70303;SDS011;57712;48.752;11.348;2022-12-29T13:56:15;6.07;;;1.27;;
70303;SDS011;57712;48.752;11.348;2022-12-29T13:59:21;5.60;;;1.00;;
70303;SDS011;57712;48.752;11.348;2022-12-29T14:01:40;4.57;;;1.02;;
70303;SDS011;57712;48.752;11.348;2022-12-29T14:04:14;4.97;;;1.03;;
70303;SDS011;57712;48.752;11.348;2022-12-29T14:06:47;4.07;;;0.70;;
70303;SDS011;57712;48.752;11.348;2022-12-29T14:09:53;5.28;;;1.45;;
70303;SDS011;57712;48.752;11.348;2022-12-29T14:17:40;6.10;;;0.70;;
70303;SDS011;57712;48.752;11.348;2022-12-29T14:20:20;5.47;;;0.90;;
70303;SDS011;57712;48.752;11.348;2022-12-29T14:22:59;4.85;;;1.30;;
70303;SDS011;57712;48.752;11.348;2022-12-29T14:28:25;4.38;;;0.73;;
70303;SDS011;57712;48.752;11.348;2022-12-29T14:30:53;4.57;;;1.70;;
70303;SDS011;57712;48.752;11.348;2022-12-29T14:33:21;5.40;;;1.33;;
70303;SDS011;57712;48.752;11.348;2022-12-29T14:35:52;5.00;;;1.48;;
70303;SDS011;57712;48.752;11.348;2022-12-29T14:38:21;6.47;;;2.22;;
70303;SDS011;57712;48.752;11.348;2022-12-29T14:40:50;5.25;;;2.08;;
70303;SDS011;57712;48.752;11.348;2022-12-29T14:43:25;6.13;;;1.50;;
70303;SDS011;57712;48.752;11.348;2022-12-29T14:45:54;5.28;;;1.77;;
70303;SDS011;57712;48.752;11.348;2022-12-29T14:50:50;4.05;;;1.23;;
70303;SDS011;57712;48.752;11.348;2022-12-29T14:56:08;8.43;;;1.87;;
70303;SDS011;57712;48.752;11.348;2022-12-29T14:58:50;5.15;;;1.85;;
70303;SDS011;57712;48.752;11.348;2022-12-29T15:01:24;6.70;;;1.65;;
70303;SDS011;57712;48.752;11.348;2022-12-29T15:03:57;8.77;;;3.03;;
70303;SDS011;57712;48.752;11.348;2022-12-29T15:06:29;6.65;;;2.60;;
70303;SDS011;57712;48.752;11.348;2022-12-29T15:09:00;7.43;;;2.10;;
70303;SDS011;57712;48.752;11.348;2022-12-29T15:11:41;5.65;;;1.88;;
70303;SDS011;57712;48.752;11.348;2022-12-29T15:14:30;5.10;;;1.55;;
70303;SDS011;57712;48.752;11.348;2022-12-29T15:16:59;6.75;;;1.52;;
70303;SDS011;57712;48.752;11.348;2022-12-29T15:19:27;4.78;;;1.10;;
70303;SDS011;57712;48.752;11.348;2022-12-29T15:21:54;6.30;;;1.33;;
70303;SDS011;57712;48.752;11.348;2022-12-29T15:24:23;6.57;;;1.70;;
70303;SDS011;57712;48.752;11.348;2022-12-29T15:26:50;6.40;;;2.30;;
70303;SDS011;57712;48.752;11.348;2022-12-29T15:29:29;4.70;;;1.75;;
70303;SDS011;57712;48.752;11.348;2022-12-29T15:31:58;5.40;;;1.58;;
70303;SDS011;57712;48.752;11.348;2022-12-29T15:34:29;5.33;;;1.83;;
70303;SDS011;57712;48.752;11.348;2022-12-29T15:36:56;6.75;;;1.60;;
70303;SDS011;57712;48.752;11.348;2022-12-29T15:39:28;5.30;;;1.75;;
70303;SDS011;57712;48.752;11.348;2022-12-29T15:41:57;6.72;;;2.08;;
70303;SDS011;57712;48.752;11.348;2022-12-29T15:44:40;4.72;;;2.10;;
70303;SDS011;57712;48.752;11.348;2022-12-29T15:47:22;4.80;;;1.33;;
70303;SDS011;57712;48.752;11.348;2022-12-29T15:49:59;4.03;;;0.85;;
70303;SDS011;57712;48.752;11.348;2022-12-29T15:52:31;6.32;;;1.65;;
70303;SDS011;57712;48.752;11.348;2022-12-29T15:55:00;4.35;;;1.00;;
70303;SDS011;57712;48.752;11.348;2022-12-29T15:57:28;6.03;;;1.80;;
70303;SDS011;57712;48.752;11.348;2022-12-29T16:00:02;5.83;;;1.73;;
70303;SDS011;57712;48.752;11.348;2022-12-29T16:02:30;5.68;;;1.63;;
70303;SDS011;57712;48.752;11.348;2022-12-29T16:04:58;4.55;;;1.30;;
70303;SDS011;57712;48.752;11.348;2022-12-29T16:07:56;5.45;;;1.90;;
70303;SDS011;57712;48.752;11.348;2022-12-29T16:10:37;10.52;;;3.83;;
70303;SDS011;57712;48.752;11.348;2022-12-29T16:18:52;9.07;;;3.58;;
70303;SDS011;57712;48.752;11.348;2022-12-29T16:21:27;7.28;;;2.60;;
70303;SDS011;57712;48.752;11.348;2022-12-29T16:24:04;7.50;;;2.85;;
70303;SDS011;57712;48.752;11.348;2022-12-29T16:26:34;6.73;;;2.70;;
70303;SDS011;57712;48.752;11.348;2022-12-29T16:29:01;8.05;;;3.35;;
70303;SDS011;57712;48.752;11.348;2022-12-29T16:31:35;7.07;;;2.97;;
70303;SDS011;57712;48.752;11.348;2022-12-29T16:34:31;5.47;;;1.80;;
70303;SDS011;57712;48.752;11.348;2022-12-29T16:39:30;6.40;;;2.00;;
70303;SDS011;57712;48.752;11.348;2022-12-29T16:45:09;7.93;;;2.22;;
70303;SDS011;57712;48.752;11.348;2022-12-29T16:48:33;5.45;;;1.80;;